createdAt,value
2022-12-29T00:01:24.216Z,25.00
2022-12-29T00:07:32.472Z,24.80
2022-12-29T00:13:58.474Z,24.70
2022-12-29T00:20:40.676Z,24.80
2022-12-29T00:27:06.999Z,24.90
2022-12-29T00:33:32.803Z,25.00
2022-12-29T00:40:17.860Z,24.90
2022-12-29T00:46:30.410Z,24.70
2022-12-29T00:52:41.904Z,24.70
2022-12-29T00:58:53.009Z,24.80
2022-12-29T01:05:00.718Z,24.90
2022-12-29T01:11:13.255Z,24.80
2022-12-29T01:17:23.823Z,24.60
2022-12-29T01:23:33.359Z,24.40
2022-12-29T01:29:42.654Z,24.30
2022-12-29T01:35:55.474Z,24.10
2022-12-29T01:42:04.903Z,24.10
2022-12-29T01:48:16.320Z,24.10
2022-12-29T01:54:30.106Z,24.00
2022-12-29T02:00:45.454Z,24.00
2022-12-29T02:06:57.583Z,23.80
2022-12-29T02:13:07.316Z,23.80
2022-12-29T02:19:36.063Z,23.80
2022-12-29T02:26:24.414Z,23.70
2022-12-29T02:32:39.916Z,23.70
2022-12-29T02:38:58.483Z,23.80
2022-12-29T02:45:09.277Z,23.70
2022-12-29T02:51:21.837Z,23.70
2022-12-29T02:57:37.126Z,23.70
2022-12-29T03:03:53.961Z,23.70
2022-12-29T03:10:06.639Z,23.70
2022-12-29T03:16:19.823Z,23.80
2022-12-29T03:22:33.245Z,23.80
2022-12-29T03:28:43.478Z,23.80
2022-12-29T03:34:52.351Z,23.80
2022-12-29T03:41:03.419Z,23.70
2022-12-29T03:47:11.668Z,23.70
2022-12-29T03:53:25.032Z,23.60
2022-12-29T03:59:34.996Z,23.60
2022-12-29T04:05:44.402Z,23.60
2022-12-29T04:11:55.443Z,23.50
2022-12-29T04:18:10.760Z,23.40
2022-12-29T04:24:18.777Z,23.40
2022-12-29T04:30:29.416Z,23.50
2022-12-29T04:36:37.548Z,23.50
2022-12-29T04:42:47.119Z,23.40
2022-12-29T04:48:56.266Z,23.40
2022-12-29T04:55:08.012Z,23.30
2022-12-29T05:01:19.275Z,23.30
2022-12-29T05:07:29.069Z,23.30
2022-12-29T05:13:36.494Z,23.20
2022-12-29T05:19:47.474Z,23.10
2022-12-29T05:32:14.195Z,23.10
2022-12-29T05:38:23.836Z,23.10
2022-12-29T05:44:34.244Z,23.00
2022-12-29T05:50:41.718Z,22.90
2022-12-29T05:56:53.386Z,22.90
2022-12-29T06:03:03.547Z,22.90
2022-12-29T06:09:13.222Z,22.90
2022-12-29T06:15:23.495Z,22.80
2022-12-29T06:21:35.041Z,22.70
2022-12-29T06:27:47.090Z,22.70
2022-12-29T06:33:59.685Z,22.70
2022-12-29T06:40:10.459Z,22.60
2022-12-29T06:46:20.933Z,22.60
2022-12-29T06:52:34.425Z,22.50
2022-12-29T06:58:44.135Z,22.50
2022-12-29T07:04:56.103Z,22.40
2022-12-29T07:11:05.273Z,22.40
2022-12-29T07:17:15.355Z,22.30
2022-12-29T07:23:24.940Z,22.30
2022-12-29T07:29:33.166Z,22.30
2022-12-29T07:35:42.927Z,22.30
2022-12-29T07:41:52.856Z,22.20
2022-12-29T07:48:07.126Z,22.20
2022-12-29T07:54:21.637Z,22.20
2022-12-29T08:00:31.446Z,22.10
2022-12-29T08:06:47.103Z,22.10
2022-12-29T08:12:55.310Z,22.10
2022-12-29T08:19:04.717Z,22.00
2022-12-29T08:25:15.757Z,22.00
2022-12-29T08:31:23.952Z,22.00
2022-12-29T08:37:36.450Z,21.90
2022-12-29T08:43:45.705Z,21.90
2022-12-29T08:49:57.106Z,21.90
2022-12-29T08:56:10.789Z,21.80
2022-12-29T09:02:24.593Z,21.80
2022-12-29T09:08:32.843Z,21.80
2022-12-29T09:14:42.023Z,21.70
2022-12-29T09:20:51.048Z,21.60
2022-12-29T09:27:01.964Z,21.70
2022-12-29T09:33:15.248Z,21.80
2022-12-29T09:39:27.398Z,22.00
2022-12-29T09:45:40.066Z,21.90
2022-12-29T09:51:53.231Z,21.80
2022-12-29T09:58:05.169Z,21.70
2022-12-29T10:04:14.941Z,21.70
2022-12-29T10:10:29.237Z,21.90
2022-12-29T10:16:39.376Z,22.00
2022-12-29T10:22:58.294Z,21.90
2022-12-29T10:29:09.791Z,21.80
2022-12-29T10:35:19.271Z,21.70
2022-12-29T10:41:31.016Z,21.70
2022-12-29T10:47:43.694Z,21.80
2022-12-29T10:53:53.298Z,22.00
2022-12-29T11:00:03.438Z,21.90
2022-12-29T11:06:15.233Z,21.80
2022-12-29T11:12:31.037Z,21.70
2022-12-29T11:18:43.368Z,21.70
2022-12-29T11:24:54.653Z,21.80
2022-12-29T11:31:07.022Z,22.00
2022-12-29T11:37:20.996Z,21.90
2022-12-29T11:43:31.009Z,21.80
2022-12-29T11:49:40.091Z,21.70
2022-12-29T11:56:00.704Z,21.70
2022-12-29T12:02:18.917Z,21.80
2022-12-29T12:08:32.844Z,22.00
2022-12-29T12:14:43.468Z,21.90
2022-12-29T12:20:53.429Z,21.80
2022-12-29T12:27:08.257Z,21.70
2022-12-29T12:33:22.129Z,21.80
2022-12-29T12:39:34.551Z,22.00
2022-12-29T12:45:54.704Z,22.20
2022-12-29T12:52:07.979Z,22.50
2022-12-29T13:05:08.194Z,23.00
2022-12-29T13:11:21.211Z,23.10
2022-12-29T13:17:34.831Z,23.10
2022-12-29T13:23:46.390Z,23.00
2022-12-29T13:30:00.357Z,23.20
2022-12-29T13:36:13.593Z,23.30
2022-12-29T13:42:23.407Z,23.30
2022-12-29T13:48:36.255Z,23.30
2022-12-29T13:54:46.698Z,23.30
2022-12-29T14:00:59.033Z,23.40
2022-12-29T14:07:09.878Z,23.50
2022-12-29T14:13:18.203Z,23.60
2022-12-29T14:19:30.676Z,23.50
2022-12-29T14:26:03.377Z,23.40
2022-12-29T14:32:35.467Z,23.30
2022-12-29T14:38:47.398Z,23.60
2022-12-29T14:44:58.564Z,23.80
2022-12-29T14:51:07.825Z,23.90
2022-12-29T14:57:19.877Z,23.90
2022-12-29T15:03:28.305Z,23.90
2022-12-29T15:09:39.307Z,24.00
2022-12-29T15:15:49.318Z,24.20
2022-12-29T15:22:02.231Z,24.40
2022-12-29T15:28:13.052Z,24.50
2022-12-29T15:34:22.667Z,24.40
2022-12-29T15:40:31.351Z,24.40
2022-12-29T15:46:44.838Z,24.40
2022-12-29T15:52:54.787Z,24.50
2022-12-29T15:59:05.869Z,24.50
2022-12-29T16:05:19.058Z,24.70
2022-12-29T16:11:33.129Z,24.80
2022-12-29T16:17:48.119Z,24.70
2022-12-29T16:23:58.253Z,24.60
2022-12-29T16:30:08.455Z,24.50
2022-12-29T16:36:30.335Z,24.30
2022-12-29T16:42:52.368Z,24.20
2022-12-29T16:49:00.876Z,24.10
2022-12-29T16:55:21.055Z,24.10
2022-12-29T17:01:30.498Z,24.50
2022-12-29T17:07:41.188Z,24.70
2022-12-29T17:13:53.997Z,24.50
2022-12-29T17:20:09.106Z,24.30
2022-12-29T17:26:18.570Z,24.60
2022-12-29T17:32:26.120Z,24.90
2022-12-29T17:38:37.000Z,25.10
2022-12-29T17:44:47.763Z,25.40
2022-12-29T17:51:01.104Z,25.50
2022-12-29T17:57:08.987Z,25.20
2022-12-29T18:03:19.198Z,25.00
2022-12-29T18:09:33.158Z,25.40
2022-12-29T18:15:42.672Z,25.70
2022-12-29T18:21:51.143Z,25.40
2022-12-29T18:28:03.335Z,25.20
2022-12-29T18:34:18.288Z,25.00
2022-12-29T18:40:26.507Z,25.30
2022-12-29T18:46:35.126Z,25.50
2022-12-29T18:52:45.198Z,25.30
2022-12-29T18:58:56.259Z,25.10
2022-12-29T19:05:08.552Z,25.20
2022-12-29T19:11:18.501Z,25.60
2022-12-29T19:17:30.087Z,25.40
2022-12-29T19:23:39.699Z,25.10
2022-12-29T19:29:48.159Z,24.80
2022-12-29T19:35:58.506Z,25.10
2022-12-29T19:42:07.523Z,25.50
2022-12-29T19:48:18.789Z,25.40
2022-12-29T19:54:31.876Z,25.10
2022-12-29T20:00:43.906Z,25.00
2022-12-29T20:06:52.559Z,25.10
2022-12-29T20:13:04.408Z,25.40
2022-12-29T20:19:16.547Z,25.60
2022-12-29T20:25:54.077Z,25.50
2022-12-29T20:31:36.805Z,25.20
2022-12-29T20:37:46.211Z,25.00
2022-12-29T20:43:55.570Z,24.90
2022-12-29T20:50:05.168Z,24.90
2022-12-29T20:56:18.904Z,24.90
2022-12-29T21:02:27.446Z,25.30
2022-12-29T21:08:39.644Z,25.50
2022-12-29T21:14:49.576Z,25.40
2022-12-29T21:21:05.633Z,25.10
2022-12-29T21:27:15.052Z,25.10
2022-12-29T21:33:26.196Z,24.90
2022-12-29T21:39:37.880Z,24.80
2022-12-29T21:45:47.543Z,25.10
2022-12-29T21:52:01.139Z,25.30
2022-12-29T21:58:28.908Z,25.20
2022-12-29T22:04:53.347Z,24.80
2022-12-29T22:11:22.690Z,24.60
2022-12-29T22:17:35.122Z,24.50
2022-12-29T22:23:42.984Z,24.90
2022-12-29T22:29:54.087Z,25.10
2022-12-29T22:36:06.545Z,25.10
2022-12-29T22:42:18.514Z,24.90
2022-12-29T22:48:26.672Z,24.70
2022-12-29T22:54:39.107Z,24.60
2022-12-29T23:00:48.564Z,24.60
2022-12-29T23:06:57.207Z,24.50
2022-12-29T23:13:06.758Z,24.50
2022-12-29T23:19:17.407Z,24.80
2022-12-29T23:25:28.432Z,25.10
2022-12-29T23:38:04.241Z,24.80
2022-12-29T23:44:14.061Z,24.60
2022-12-29T23:50:24.084Z,24.80
2022-12-29T23:56:34.430Z,25.20
